METAR Data
IDs: Format: Raw Decoded Include TAF

Data at: 0142 UTC 01 Mar 2021

KHAO 010053Z AUTO 20003KT 7SM -RA OVC085 14/13 A2981 RMK AO2 RAB27 SLP095 P0002 T01440133